createdAt,value
2023-01-09T00:01:42.904Z,31.00
2023-01-09T00:04:12.566Z,35.10
2023-01-09T00:06:42.855Z,35.90
2023-01-09T00:09:11.137Z,28.80
2023-01-09T00:11:39.528Z,33.50
2023-01-09T00:14:08.401Z,31.80
2023-01-09T00:16:37.737Z,30.20
2023-01-09T00:19:06.043Z,29.50
2023-01-09T00:21:34.255Z,28.50
2023-01-09T00:24:02.406Z,30.70
2023-01-09T00:26:31.265Z,32.10
2023-01-09T00:29:00.074Z,31.70
2023-01-09T00:31:28.408Z,33.20
2023-01-09T00:34:07.492Z,33.90
2023-01-09T00:36:35.714Z,29.70
2023-01-09T00:39:04.575Z,26.60
2023-01-09T00:41:41.927Z,30.40
2023-01-09T00:44:27.772Z,30.50
2023-01-09T00:47:03.064Z,27.50
2023-01-09T00:49:34.481Z,27.40
2023-01-09T00:52:04.474Z,29.90
2023-01-09T00:54:33.098Z,29.00
2023-01-09T00:57:01.469Z,30.70
2023-01-09T00:59:29.637Z,31.50
2023-01-09T01:01:58.076Z,29.00
2023-01-09T01:04:45.264Z,28.20
2023-01-09T01:07:32.090Z,30.40
2023-01-09T01:10:00.294Z,24.40
2023-01-09T01:12:28.529Z,27.90
2023-01-09T01:14:56.639Z,31.80
2023-01-09T01:17:25.098Z,29.60
2023-01-09T01:19:53.742Z,29.70
2023-01-09T01:22:21.796Z,26.70
2023-01-09T01:24:50.016Z,29.20
2023-01-09T01:27:18.597Z,32.40
2023-01-09T01:29:46.698Z,29.30
2023-01-09T01:32:15.330Z,32.90
2023-01-09T01:34:43.724Z,28.60
2023-01-09T01:37:11.751Z,27.20
2023-01-09T01:39:40.205Z,32.50
2023-01-09T01:42:08.573Z,29.50
2023-01-09T01:45:04.568Z,28.70
2023-01-09T01:47:42.348Z,27.70
2023-01-09T01:50:18.070Z,33.20
2023-01-09T01:52:52.807Z,30.30
2023-01-09T01:55:21.218Z,31.90
2023-01-09T01:57:53.775Z,31.60
2023-01-09T02:00:24.954Z,27.10
2023-01-09T02:03:28.559Z,29.80
2023-01-09T02:06:25.350Z,34.10
2023-01-09T02:08:52.129Z,33.50
2023-01-09T02:11:19.887Z,32.20
2023-01-09T02:13:47.620Z,35.60
2023-01-09T02:16:29.281Z,28.30
2023-01-09T02:19:34.043Z,34.80
2023-01-09T02:22:22.086Z,29.60
2023-01-09T02:25:00.882Z,36.20
2023-01-09T02:27:58.690Z,33.30
2023-01-09T02:30:31.487Z,32.10
2023-01-09T02:33:10.336Z,32.90
2023-01-09T02:35:37.004Z,28.90
2023-01-09T02:38:12.499Z,32.30
2023-01-09T02:40:47.454Z,34.10
2023-01-09T02:43:15.341Z,37.70
2023-01-09T02:45:42.019Z,37.20
2023-01-09T02:48:12.398Z,37.70
2023-01-09T02:50:47.612Z,30.40
2023-01-09T02:53:35.721Z,31.00
2023-01-09T02:56:24.445Z,34.00
2023-01-09T02:59:16.769Z,36.20
2023-01-09T03:02:05.343Z,29.10
2023-01-09T03:04:38.196Z,39.60
2023-01-09T03:07:17.144Z,37.20
2023-01-09T03:09:49.892Z,39.50
2023-01-09T03:12:21.071Z,33.20
2023-01-09T03:14:51.462Z,33.90
2023-01-09T03:17:34.957Z,31.90
2023-01-09T03:20:05.299Z,34.70
2023-01-09T03:22:32.227Z,32.00
2023-01-09T03:24:59.016Z,37.10
2023-01-09T03:27:26.398Z,39.40
2023-01-09T03:29:54.083Z,38.10
2023-01-09T03:32:20.777Z,35.20
2023-01-09T03:34:47.446Z,34.00
2023-01-09T03:37:14.398Z,34.20
2023-01-09T03:39:42.683Z,35.10
2023-01-09T03:42:09.398Z,32.40
2023-01-09T03:44:36.253Z,34.40
2023-01-09T03:47:02.946Z,36.60
2023-01-09T03:49:30.028Z,39.70
2023-01-09T03:51:56.955Z,43.30
2023-01-09T03:54:23.729Z,37.10
2023-01-09T03:56:50.556Z,35.50
2023-01-09T03:59:18.016Z,38.60
2023-01-09T04:01:44.703Z,35.00
2023-01-09T04:04:11.698Z,34.50
2023-01-09T04:06:38.562Z,37.30
2023-01-09T04:09:05.226Z,37.20
2023-01-09T04:11:31.895Z,42.00
2023-01-09T04:13:58.938Z,37.40
2023-01-09T04:16:25.640Z,34.60
2023-01-09T04:18:52.303Z,37.80
2023-01-09T04:21:19.253Z,40.70
2023-01-09T04:23:45.932Z,34.00
2023-01-09T04:26:12.826Z,39.60
2023-01-09T04:28:39.611Z,39.50
2023-01-09T04:31:06.299Z,41.00
2023-01-09T04:33:33.080Z,38.40
2023-01-09T04:36:00.070Z,37.90
2023-01-09T04:38:26.891Z,35.60
2023-01-09T04:40:53.797Z,38.80
2023-01-09T04:43:20.941Z,36.50
2023-01-09T04:45:47.616Z,42.20
2023-01-09T04:48:14.404Z,38.30
2023-01-09T04:50:41.215Z,38.10
2023-01-09T04:53:08.165Z,36.60
2023-01-09T04:55:35.189Z,37.30
2023-01-09T04:58:02.205Z,44.00
2023-01-09T05:00:28.847Z,37.50
2023-01-09T05:02:56.710Z,38.20
2023-01-09T05:05:23.743Z,38.40
2023-01-09T05:07:50.413Z,37.70
2023-01-09T05:10:17.373Z,42.50
2023-01-09T05:12:44.247Z,43.60
2023-01-09T05:15:11.345Z,44.60
2023-01-09T05:17:38.071Z,38.50
2023-01-09T05:20:05.176Z,33.20
2023-01-09T05:22:31.959Z,38.90
2023-01-09T05:25:00.440Z,43.30
2023-01-09T05:27:27.710Z,32.20
2023-01-09T05:29:54.403Z,36.90
2023-01-09T05:32:21.191Z,42.70
2023-01-09T05:34:48.104Z,42.60
2023-01-09T05:37:14.811Z,46.70
2023-01-09T05:39:41.604Z,40.10
2023-01-09T05:42:08.469Z,43.20
2023-01-09T05:44:35.132Z,36.80
2023-01-09T05:47:02.919Z,41.00
2023-01-09T05:49:30.159Z,39.50
2023-01-09T05:51:56.781Z,37.80
2023-01-09T05:54:23.549Z,48.10
2023-01-09T05:56:50.378Z,48.60
2023-01-09T05:59:17.075Z,45.70
2023-01-09T06:01:44.063Z,38.20
2023-01-09T06:04:10.912Z,36.30
2023-01-09T06:06:37.817Z,37.50
2023-01-09T06:09:04.570Z,34.90
2023-01-09T06:11:33.679Z,42.40
2023-01-09T06:14:00.818Z,43.20
2023-01-09T06:16:27.606Z,42.00
2023-01-09T06:18:54.879Z,41.20
2023-01-09T06:21:21.617Z,34.60
2023-01-09T06:23:48.412Z,40.70
2023-01-09T06:26:15.333Z,39.40
2023-01-09T06:28:44.499Z,41.60
2023-01-09T06:31:11.598Z,42.20
2023-01-09T06:33:38.702Z,47.30
2023-01-09T06:36:05.567Z,47.10
2023-01-09T06:38:32.500Z,42.00
2023-01-09T06:40:59.417Z,38.30
2023-01-09T06:43:26.171Z,42.00
2023-01-09T06:45:53.738Z,41.10
2023-01-09T06:48:20.615Z,46.40
2023-01-09T06:50:48.110Z,47.10
2023-01-09T06:53:14.910Z,45.20
2023-01-09T06:55:41.710Z,43.90
2023-01-09T06:58:08.436Z,44.50
2023-01-09T07:00:36.024Z,40.70
2023-01-09T07:03:04.028Z,46.10
2023-01-09T07:05:37.464Z,42.70
2023-01-09T07:08:04.390Z,43.20
2023-01-09T07:10:31.064Z,49.60
2023-01-09T07:12:57.997Z,47.80
2023-01-09T07:15:25.053Z,48.80
2023-01-09T07:17:52.576Z,50.00
2023-01-09T07:20:20.308Z,39.60
2023-01-09T07:22:47.291Z,43.10
2023-01-09T07:25:13.982Z,38.40
2023-01-09T07:27:41.762Z,37.80
2023-01-09T07:30:09.447Z,39.10
2023-01-09T07:32:37.875Z,45.10
2023-01-09T07:35:05.154Z,44.20
2023-01-09T07:37:32.044Z,41.70
2023-01-09T07:39:58.677Z,40.50
2023-01-09T07:42:25.471Z,39.20
2023-01-09T07:44:52.312Z,36.30
2023-01-09T07:47:19.045Z,41.10
2023-01-09T07:49:45.811Z,39.40
2023-01-09T07:52:12.833Z,38.90
2023-01-09T07:54:39.597Z,45.90
2023-01-09T07:57:06.414Z,46.50
2023-01-09T07:59:33.592Z,41.50
2023-01-09T08:02:01.855Z,42.70
2023-01-09T08:04:28.872Z,37.20
2023-01-09T08:06:56.352Z,40.80
2023-01-09T08:09:23.515Z,37.00
2023-01-09T08:11:50.300Z,34.40
2023-01-09T08:14:17.119Z,39.90
2023-01-09T08:16:43.828Z,43.80
2023-01-09T08:19:11.640Z,36.40
2023-01-09T08:21:39.177Z,36.10
2023-01-09T08:24:06.394Z,36.60
2023-01-09T08:26:33.131Z,33.60
2023-01-09T08:29:00.126Z,33.60
2023-01-09T08:31:26.799Z,36.40
2023-01-09T08:33:53.824Z,42.40
2023-01-09T08:36:21.394Z,34.00
2023-01-09T08:38:48.516Z,36.50
2023-01-09T08:41:33.807Z,34.50
2023-01-09T08:44:19.226Z,36.20
2023-01-09T08:47:05.200Z,34.70
2023-01-09T08:49:37.726Z,33.80
2023-01-09T08:52:05.953Z,36.90
2023-01-09T08:54:34.748Z,37.50
2023-01-09T08:57:02.178Z,33.30
2023-01-09T08:59:29.185Z,32.20
2023-01-09T09:01:57.626Z,32.10
2023-01-09T09:04:24.644Z,31.20
2023-01-09T09:06:51.566Z,32.10
2023-01-09T09:09:18.771Z,32.60
2023-01-09T09:11:45.752Z,31.20
2023-01-09T09:14:31.434Z,30.80
2023-01-09T09:16:58.832Z,28.60
2023-01-09T09:19:25.556Z,27.10
2023-01-09T09:21:52.673Z,26.20
2023-01-09T09:24:20.087Z,27.00
2023-01-09T09:26:46.753Z,26.40
2023-01-09T09:29:13.705Z,26.70
2023-01-09T09:31:40.857Z,30.40
2023-01-09T09:34:07.577Z,30.30
2023-01-09T09:36:34.386Z,24.30
2023-01-09T09:39:02.212Z,29.70
2023-01-09T09:41:58.205Z,27.30
2023-01-09T09:44:54.323Z,26.40
2023-01-09T09:47:48.004Z,23.90
2023-01-09T09:50:27.409Z,29.20
2023-01-09T09:53:19.193Z,24.80
2023-01-09T09:55:49.199Z,25.50
2023-01-09T09:58:45.080Z,23.90
2023-01-09T10:01:17.797Z,24.70
2023-01-09T10:03:55.445Z,23.80
2023-01-09T10:06:37.187Z,22.70
2023-01-09T10:09:15.754Z,24.50
2023-01-09T10:12:00.549Z,22.30
2023-01-09T10:14:27.594Z,22.00
2023-01-09T10:17:19.392Z,23.90
2023-01-09T10:20:13.377Z,23.20
2023-01-09T10:23:05.417Z,23.40
2023-01-09T10:26:00.747Z,24.10
2023-01-09T10:28:46.100Z,21.70
2023-01-09T10:31:35.461Z,21.40
2023-01-09T10:34:19.184Z,23.80
2023-01-09T10:37:01.598Z,22.60
2023-01-09T10:39:58.709Z,25.00
2023-01-09T10:42:49.374Z,21.40
2023-01-09T10:45:53.777Z,17.50
2023-01-09T10:48:43.924Z,18.30
2023-01-09T10:51:23.820Z,18.70
2023-01-09T10:53:53.546Z,22.00
2023-01-09T10:56:36.362Z,20.10
2023-01-09T10:59:03.949Z,19.90
2023-01-09T11:01:36.859Z,24.90
2023-01-09T11:04:28.940Z,19.80
2023-01-09T11:07:12.283Z,22.40
2023-01-09T11:09:55.726Z,21.50
2023-01-09T11:12:29.122Z,20.70
2023-01-09T11:15:16.061Z,20.90
2023-01-09T11:17:43.659Z,23.70
2023-01-09T11:20:22.349Z,20.30
2023-01-09T11:22:52.230Z,20.80
2023-01-09T11:25:21.408Z,19.80
2023-01-09T11:28:06.250Z,23.80
2023-01-09T11:30:50.339Z,24.90
2023-01-09T11:33:24.264Z,21.80
2023-01-09T11:35:54.655Z,24.70
2023-01-09T11:38:24.337Z,25.10
2023-01-09T11:40:54.794Z,23.90
2023-01-09T11:43:40.053Z,25.00
2023-01-09T11:46:10.895Z,26.20
2023-01-09T11:48:39.226Z,27.20
2023-01-09T11:51:30.284Z,22.70
2023-01-09T11:54:18.791Z,21.50
2023-01-09T11:56:46.785Z,24.70
2023-01-09T11:59:16.801Z,21.80
2023-01-09T12:01:52.003Z,23.10
2023-01-09T12:04:51.675Z,26.40
2023-01-09T12:07:50.234Z,26.70
2023-01-09T12:11:01.062Z,30.20
2023-01-09T12:13:48.445Z,25.40
2023-01-09T12:16:25.001Z,24.80
2023-01-09T12:19:11.518Z,23.20
2023-01-09T12:22:00.969Z,26.40
2023-01-09T12:24:34.082Z,28.30
2023-01-09T12:27:30.881Z,25.20
2023-01-09T12:30:45.817Z,22.50
2023-01-09T12:33:26.236Z,23.60
2023-01-09T12:36:11.116Z,22.20
2023-01-09T12:38:47.014Z,24.20
2023-01-09T12:41:33.031Z,19.90
2023-01-09T12:44:18.082Z,22.70
2023-01-09T12:47:23.998Z,22.60
2023-01-09T12:50:06.963Z,20.90
2023-01-09T12:52:43.186Z,23.30
2023-01-09T12:55:16.248Z,22.70
2023-01-09T12:57:50.645Z,20.70
2023-01-09T13:00:37.198Z,20.00
2023-01-09T13:03:18.563Z,18.80
2023-01-09T13:05:51.147Z,20.70
2023-01-09T13:08:35.662Z,25.60
2023-01-09T13:11:20.488Z,21.00
2023-01-09T13:14:14.466Z,19.70
2023-01-09T13:16:49.024Z,21.10
2023-01-09T13:19:33.977Z,20.10
2023-01-09T13:22:04.608Z,20.40
2023-01-09T13:25:07.368Z,20.70
2023-01-09T13:27:39.901Z,16.20
2023-01-09T13:30:13.121Z,21.10
2023-01-09T13:32:42.541Z,19.60
2023-01-09T13:35:14.231Z,22.10
2023-01-09T13:37:42.287Z,18.60
2023-01-09T13:40:21.043Z,20.80
2023-01-09T13:43:03.602Z,20.60
2023-01-09T13:45:37.116Z,18.50
2023-01-09T13:48:10.433Z,22.20
2023-01-09T13:50:38.156Z,21.10
2023-01-09T13:53:17.279Z,23.40
2023-01-09T13:56:02.647Z,21.30
2023-01-09T13:58:31.161Z,20.80
2023-01-09T14:01:01.094Z,21.90
2023-01-09T14:03:32.469Z,21.90
2023-01-09T14:05:59.680Z,24.40
2023-01-09T14:08:28.748Z,23.70
2023-01-09T14:11:06.109Z,20.80
2023-01-09T14:13:37.553Z,20.10
2023-01-09T14:16:10.342Z,19.40
2023-01-09T14:18:45.519Z,23.30
2023-01-09T14:21:12.912Z,24.20
2023-01-09T14:23:52.578Z,22.90
2023-01-09T14:26:25.108Z,24.00
2023-01-09T14:29:17.453Z,24.00
2023-01-09T14:31:44.401Z,19.30
2023-01-09T14:34:31.934Z,23.40
2023-01-09T14:37:02.006Z,21.60
2023-01-09T14:39:31.930Z,20.80
2023-01-09T14:42:07.842Z,24.40
2023-01-09T14:44:46.542Z,21.20
2023-01-09T14:47:28.958Z,17.30
2023-01-09T14:50:21.439Z,17.50
2023-01-09T14:52:53.591Z,16.40
2023-01-09T14:55:29.737Z,20.80
2023-01-09T14:58:28.650Z,15.30
2023-01-09T15:01:04.959Z,16.20
2023-01-09T15:03:38.968Z,12.50
2023-01-09T15:06:20.617Z,12.40
2023-01-09T15:08:54.509Z,12.00
2023-01-09T15:11:21.545Z,11.20
2023-01-09T15:13:52.229Z,12.80
2023-01-09T15:16:21.551Z,11.80
2023-01-09T15:18:53.086Z,13.10
2023-01-09T15:21:24.062Z,14.20
2023-01-09T15:23:51.099Z,10.80
2023-01-09T15:26:30.437Z,13.60
2023-01-09T15:29:12.306Z,11.30
2023-01-09T15:31:42.393Z,12.10
2023-01-09T15:34:18.530Z,11.20
2023-01-09T15:36:48.582Z,14.20
2023-01-09T15:39:23.931Z,12.00
2023-01-09T15:42:09.750Z,10.30
2023-01-09T15:44:39.539Z,10.30
2023-01-09T15:47:11.761Z,11.30
2023-01-09T15:49:38.701Z,8.70
2023-01-09T15:52:11.178Z,10.30
2023-01-09T15:54:39.779Z,9.00
2023-01-09T15:57:32.584Z,8.30
2023-01-09T16:00:31.260Z,7.50
2023-01-09T16:03:10.684Z,11.20
2023-01-09T16:05:46.768Z,9.40
2023-01-09T16:08:28.910Z,8.50
2023-01-09T16:11:00.997Z,9.80
2023-01-09T16:13:30.728Z,8.90
2023-01-09T16:15:59.910Z,9.40
2023-01-09T16:18:33.346Z,9.40
2023-01-09T16:21:31.451Z,8.50
2023-01-09T16:24:13.218Z,8.40
2023-01-09T16:26:40.239Z,9.00
2023-01-09T16:29:37.007Z,8.90
2023-01-09T16:32:06.123Z,9.20
2023-01-09T16:34:34.352Z,10.50
2023-01-09T16:37:02.318Z,10.30
2023-01-09T16:39:30.071Z,10.80
2023-01-09T16:42:15.728Z,12.30
2023-01-09T16:44:42.773Z,9.80
2023-01-09T16:47:11.953Z,13.20
2023-01-09T16:49:38.765Z,12.90
2023-01-09T16:52:14.809Z,11.50
2023-01-09T16:54:43.304Z,13.90
2023-01-09T16:57:15.406Z,11.30
2023-01-09T16:59:42.983Z,9.40
2023-01-09T17:02:17.537Z,9.30
2023-01-09T17:04:44.426Z,11.60
2023-01-09T17:07:15.889Z,11.70
2023-01-09T17:09:43.162Z,11.30
2023-01-09T17:12:24.231Z,11.10
2023-01-09T17:14:51.075Z,10.30
2023-01-09T17:17:18.182Z,10.70
2023-01-09T17:19:47.633Z,13.70
2023-01-09T17:22:15.044Z,10.70
2023-01-09T17:25:00.239Z,12.10
2023-01-09T17:27:52.743Z,12.30
2023-01-09T17:30:20.462Z,12.10
2023-01-09T17:32:48.200Z,12.30
2023-01-09T17:35:15.588Z,11.60
2023-01-09T17:37:43.780Z,11.70
2023-01-09T17:40:22.343Z,14.20
2023-01-09T17:42:49.099Z,14.30
2023-01-09T17:45:15.980Z,14.00
2023-01-09T17:47:42.932Z,14.50
2023-01-09T17:50:18.083Z,12.90
2023-01-09T17:52:46.403Z,12.30
2023-01-09T17:55:13.403Z,13.30
2023-01-09T17:57:42.806Z,15.50
2023-01-09T18:00:26.014Z,14.80
2023-01-09T18:02:54.306Z,14.40
2023-01-09T18:05:22.003Z,16.90
2023-01-09T18:07:49.296Z,17.80
2023-01-09T18:10:18.735Z,15.30
2023-01-09T18:12:50.028Z,13.90
2023-01-09T18:15:16.879Z,16.30
2023-01-09T18:17:43.546Z,16.00
2023-01-09T18:20:10.787Z,16.50
2023-01-09T18:22:37.648Z,15.90
2023-01-09T18:25:05.295Z,18.70
2023-01-09T18:27:34.738Z,16.60
2023-01-09T18:30:04.284Z,15.40
2023-01-09T18:32:32.281Z,16.50
2023-01-09T18:35:00.257Z,16.50
2023-01-09T18:37:27.029Z,15.80
2023-01-09T18:39:53.700Z,20.50
2023-01-09T18:42:20.528Z,18.00
2023-01-09T18:44:47.356Z,16.60
2023-01-09T18:47:13.946Z,16.60
2023-01-09T18:49:41.030Z,17.10
2023-01-09T18:52:07.939Z,16.20
2023-01-09T18:54:34.623Z,18.30
2023-01-09T18:57:01.630Z,16.70
2023-01-09T18:59:28.386Z,18.60
2023-01-09T19:01:54.988Z,17.40
2023-01-09T19:04:22.206Z,18.50
2023-01-09T19:06:49.863Z,18.90
2023-01-09T19:09:16.597Z,19.40
2023-01-09T19:11:44.269Z,17.70
2023-01-09T19:14:13.190Z,19.50
2023-01-09T19:16:40.089Z,17.70
2023-01-09T19:19:08.219Z,16.70
2023-01-09T19:21:35.534Z,18.30
2023-01-09T19:24:02.202Z,22.60
2023-01-09T19:26:30.325Z,19.70
2023-01-09T19:28:57.090Z,19.20
2023-01-09T19:31:25.698Z,17.70
2023-01-09T19:33:52.692Z,19.20
2023-01-09T19:36:20.655Z,20.50
2023-01-09T19:38:47.445Z,20.00
2023-01-09T19:41:19.592Z,20.10
2023-01-09T19:43:47.156Z,21.70
2023-01-09T19:46:21.318Z,20.60
2023-01-09T19:48:48.621Z,22.30
2023-01-09T19:51:17.184Z,18.50
2023-01-09T19:53:44.368Z,16.60
2023-01-09T19:56:12.903Z,17.90
2023-01-09T19:58:40.811Z,19.40
2023-01-09T20:01:14.669Z,19.80
2023-01-09T20:03:43.308Z,17.40
2023-01-09T20:06:16.967Z,18.20
2023-01-09T20:08:47.907Z,17.70
2023-01-09T20:11:15.292Z,15.80
2023-01-09T20:13:42.797Z,16.00
2023-01-09T20:16:19.326Z,15.90
2023-01-09T20:18:47.618Z,17.10
2023-01-09T20:21:21.040Z,20.10
2023-01-09T20:23:50.821Z,18.40
2023-01-09T20:26:18.450Z,15.80
2023-01-09T20:28:46.251Z,17.00
2023-01-09T20:31:15.878Z,18.10
2023-01-09T20:33:44.130Z,17.50
2023-01-09T20:36:10.947Z,22.10
2023-01-09T20:38:39.262Z,24.80
2023-01-09T20:41:23.713Z,22.40
2023-01-09T20:44:13.056Z,24.90
2023-01-09T20:46:42.817Z,26.00
2023-01-09T20:49:12.439Z,25.60
2023-01-09T20:51:46.113Z,24.20
2023-01-09T20:54:14.401Z,25.90
2023-01-09T20:56:41.470Z,21.80
2023-01-09T20:59:17.049Z,24.50
2023-01-09T21:01:43.817Z,22.20
2023-01-09T21:04:10.587Z,19.40
2023-01-09T21:06:37.737Z,20.90
2023-01-09T21:09:05.542Z,18.00
2023-01-09T21:11:32.744Z,21.50
2023-01-09T21:13:59.819Z,22.90
2023-01-09T21:16:26.677Z,21.40
2023-01-09T21:18:54.455Z,20.40
2023-01-09T21:21:24.162Z,20.90
2023-01-09T21:23:55.258Z,20.00
2023-01-09T21:26:25.983Z,21.90
2023-01-09T21:28:54.691Z,19.50
2023-01-09T21:31:30.361Z,23.50
2023-01-09T21:33:57.287Z,19.50
2023-01-09T21:36:23.988Z,19.00
2023-01-09T21:38:53.629Z,19.10
2023-01-09T21:41:39.436Z,18.00
2023-01-09T21:44:28.648Z,19.90
2023-01-09T21:46:56.947Z,20.00
2023-01-09T21:49:25.815Z,20.10
2023-01-09T21:51:53.914Z,18.60
2023-01-09T21:54:24.883Z,19.20
2023-01-09T21:56:52.356Z,19.50
2023-01-09T21:59:19.160Z,20.50
2023-01-09T22:01:48.457Z,18.80
2023-01-09T22:04:16.654Z,20.00
2023-01-09T22:06:43.384Z,21.30
2023-01-09T22:09:10.760Z,23.50
2023-01-09T22:11:38.219Z,21.40
2023-01-09T22:14:05.751Z,22.10
2023-01-09T22:16:33.147Z,21.40
2023-01-09T22:18:59.959Z,20.70
2023-01-09T22:21:26.849Z,20.10
2023-01-09T22:23:53.935Z,23.10
2023-01-09T22:26:20.977Z,19.90
2023-01-09T22:28:48.031Z,23.30
2023-01-09T22:31:18.096Z,22.00
2023-01-09T22:33:50.268Z,20.70
2023-01-09T22:36:17.257Z,20.10
2023-01-09T22:38:44.708Z,23.40
2023-01-09T22:41:12.522Z,19.70
2023-01-09T22:43:39.402Z,24.30
2023-01-09T22:46:09.127Z,20.50
2023-01-09T22:48:38.739Z,18.70
2023-01-09T22:51:10.164Z,19.00
2023-01-09T22:53:36.814Z,21.00
2023-01-09T22:56:07.720Z,20.80
2023-01-09T22:58:34.438Z,22.30
2023-01-09T23:01:01.650Z,22.50
2023-01-09T23:03:28.600Z,20.80
2023-01-09T23:06:07.943Z,19.60
2023-01-09T23:08:35.032Z,20.00
2023-01-09T23:11:04.524Z,21.20
2023-01-09T23:13:31.247Z,21.80
2023-01-09T23:15:58.146Z,19.50
2023-01-09T23:18:24.899Z,14.80
2023-01-09T23:20:53.884Z,16.80
2023-01-09T23:23:22.296Z,17.60
2023-01-09T23:25:53.677Z,14.70
2023-01-09T23:28:21.290Z,16.10
2023-01-09T23:30:48.880Z,17.40
2023-01-09T23:33:16.494Z,16.90
2023-01-09T23:35:43.930Z,17.70
2023-01-09T23:38:11.465Z,18.00
2023-01-09T23:40:40.620Z,17.50
2023-01-09T23:43:09.982Z,19.80
2023-01-09T23:45:38.669Z,17.90
2023-01-09T23:48:07.292Z,19.50
2023-01-09T23:50:34.373Z,17.30
2023-01-09T23:53:01.549Z,16.50
2023-01-09T23:55:28.672Z,16.90
2023-01-09T23:57:55.646Z,18.00
